Modern Express — H9DG — position and weather

sailwx.info

Track history (hours):
 
Tides and Currents Weather Stations Pressure Air Temp Water Temp Dewpoint Dewpoint Depression Visibility Wind Speed Wind Dir Waves Ship Positions

Modern Express

Last reported at 2014-Aug-18 08:08 UTC. Time now 2014-Sep-01 23:57 UTC.
Position N 36°28' W 010°48'.
Warning: this ship's position is 14 days out of date.

Length 164 m; beam 28 m.

Type: Cargo ship. MMSI: 356187000.

Date/timePositionNaut miles runAvg speedWind from/ knotsBaromVisibWave heightAir tempDewpointWater temp
2014-Aug-18 08:08N 36°28' W 010°48'915.9
2014-Aug-18 07:33N 36°37' W 010°49'3816.1
2014-Aug-18 05:11N 37°15' W 010°45'  
2014-Aug-15 15:30N 50°29' W 000°11'1516.2
2014-Aug-15 14:33N 50°33' E 000°12'1515.1
2014-Aug-15 13:33N 50°38' E 000°35'1514.9
2014-Aug-15 12:33N 50°46' E 000°54'2316.7
2014-Aug-15 11:12N 51°01' E 001°21'1219.5
2014-Aug-15 10:33N 51°08' E 001°37'1918.7
2014-Aug-15 09:33N 51°23' E 001°56'1614.5
2014-Aug-15 08:27N 51°21' E 002°22'1213.8
2014-Aug-15 07:33N 51°22' E 002°42'1413.7
2014-Aug-15 06:34N 51°25' E 003°03'1414.5
2014-Aug-15 05:34N 51°25' E 003°26'10 9.6
2014-Aug-15 04:33N 51°26' E 003°42'9 9.1
2014-Aug-15 03:33N 51°22' E 003°55'6 6.0
2014-Aug-15 02:33N 51°22' E 004°04'8 8.4
2014-Aug-15 01:34N 51°19' E 004°16'3 3.1
2014-Aug-15 00:34N 51°16' E 004°17'2 1.9
2014-Aug-14 23:33N 51°16' E 004°14'0 0.3
2014-Aug-14 22:31N 51°16' E 004°13'0 0.0
2014-Aug-14 21:31N 51°16' E 004°13'0 0.0
2014-Aug-14 20:31N 51°16' E 004°13'0 0.0
2014-Aug-14 19:31N 51°16' E 004°13'0 0.0
2014-Aug-14 18:31N 51°16' E 004°13'0 0.0
2014-Aug-14 17:32N 51°16' E 004°13'0 0.0
2014-Aug-14 16:22N 51°16' E 004°13'0 0.0
2014-Aug-14 15:31N 51°16' E 004°13'0 0.0
2014-Aug-14 14:31N 51°16' E 004°13'0 0.0
2014-Aug-14 13:31N 51°16' E 004°13'0 0.0
2014-Aug-14 12:31N 51°16' E 004°13'0 0.0
2014-Aug-14 11:31N 51°16' E 004°13'0 0.0
2014-Aug-14 10:31N 51°16' E 004°13'0 0.0
2014-Aug-14 09:31N 51°16' E 004°13'0 0.0
2014-Aug-14 08:31N 51°16' E 004°13'0 0.0
2014-Aug-14 07:31N 51°16' E 004°13'0 0.0
2014-Aug-14 06:31N 51°16' E 004°13'0 0.0
2014-Aug-14 05:31N 51°16' E 004°13'0 0.0
2014-Aug-14 04:31N 51°16' E 004°13'0 0.0
2014-Aug-14 03:31N 51°16' E 004°13'0 0.0
2014-Aug-14 02:33N 51°16' E 004°13'0 0.0
2014-Aug-14 01:31N 51°16' E 004°13'0 0.0
2014-Aug-14 00:31N 51°16' E 004°13'0 0.0
2014-Aug-13 23:31N 51°16' E 004°13'0 0.0
2014-Aug-13 22:28N 51°16' E 004°13'0 0.0
2014-Aug-13 21:33N 51°16' E 004°13'0 0.0
2014-Aug-13 20:31N 51°16' E 004°13'0 0.0
2014-Aug-13 19:31N 51°16' E 004°13'0 0.0
2014-Aug-13 18:31N 51°16' E 004°13'0 0.0
2014-Aug-13 17:31N 51°16' E 004°13'0 0.0
2014-Aug-13 16:31N 51°16' E 004°13'0 0.0
2014-Aug-13 15:28N 51°16' E 004°13'0 0.0
2014-Aug-13 14:31N 51°16' E 004°13'0 0.0
2014-Aug-13 13:31N 51°16' E 004°13'0 0.0
2014-Aug-13 12:31N 51°16' E 004°13'0 0.0
2014-Aug-13 11:31N 51°16' E 004°13'0 0.0
2014-Aug-13 10:31N 51°16' E 004°13'0 0.0
2014-Aug-13 09:31N 51°16' E 004°13'0 0.0
2014-Aug-13 08:28N 51°16' E 004°13'0 0.0
2014-Aug-13 07:28N 51°16' E 004°13'0 0.0
2014-Aug-13 06:31N 51°16' E 004°13'0 0.0
2014-Aug-13 05:28N 51°16' E 004°13'0 0.0
2014-Aug-13 04:31N 51°16' E 004°13'0 0.0
2014-Aug-13 03:31N 51°16' E 004°13'0 0.0
2014-Aug-13 02:31N 51°16' E 004°13'0 0.0
2014-Aug-13 01:31N 51°16' E 004°13'0 0.0
2014-Aug-13 00:31N 51°16' E 004°13'0 0.0
2014-Aug-12 23:31N 51°16' E 004°13'0 0.0
2014-Aug-12 22:28N 51°16' E 004°13'0 0.0
2014-Aug-12 21:31N 51°16' E 004°13'0 0.0
2014-Aug-12 20:28N 51°16' E 004°13'0 0.0
2014-Aug-12 19:31N 51°16' E 004°13'0 0.0
2014-Aug-12 18:28N 51°16' E 004°13'0 0.0
2014-Aug-12 17:31N 51°16' E 004°13'2 2.2
2014-Aug-12 16:34N 51°16' E 004°17'0 0.3
2014-Aug-12 15:34N 51°16' E 004°17'6 6.1
2014-Aug-12 14:34N 51°22' E 004°14'9 9.0
2014-Aug-12 13:33N 51°26' E 004°01'1110.7
2014-Aug-12 12:33N 51°22' E 003°45'9 9.1
2014-Aug-12 11:33N 51°25' E 003°31'1616.1
2014-Aug-12 10:33N 51°24' E 003°06'1413.8
2014-Aug-12 09:33N 51°22' E 002°44'5 4.9
2014-Aug-12 08:28N 51°20' E 002°36'0 0.2
2014-Aug-12 07:31N 51°20' E 002°36'2 2.6
2014-Aug-12 06:33N 51°22' E 002°33'1212.2
2014-Aug-12 05:33N 51°17' E 002°15'1716.8
2014-Aug-12 04:34N 51°09' E 001°52'1817.7
2014-Aug-12 03:34N 50°57' E 001°30'2317.5
2014-Aug-12 02:15N 50°37' E 001°15'2016.9
2014-Aug-12 01:05N 50°26' E 000°49'916.9
2014-Aug-12 00:34N 50°23' E 000°35'4614.7
2014-Aug-11 21:26N 49°46' W 000°08'1516.7
2014-Aug-11 20:34N 49°32' W 000°06'10 9.8
2014-Aug-11 19:33N 49°28' E 000°08'2 1.6
2014-Aug-11 18:33N 49°29' E 000°11'0 0.2
2014-Aug-11 17:33N 49°29' E 000°11'0 0.0
2014-Aug-11 16:33N 49°29' E 000°11'0 0.0
2014-Aug-11 15:21N 49°29' E 000°11'0 0.0
2014-Aug-11 14:33N 49°29' E 000°11'0 0.0
2014-Aug-11 13:33N 49°29' E 000°11'0 0.0
2014-Aug-11 12:33N 49°29' E 000°11'0 0.0
2014-Aug-11 11:27N 49°29' E 000°11'0 0.0
2014-Aug-11 10:33N 49°29' E 000°11'0 0.0
2014-Aug-11 09:33N 49°29' E 000°11'0 0.0
2014-Aug-11 08:33N 49°29' E 000°11'0 0.0
2014-Aug-11 07:33N 49°29' E 000°11'0 0.1
2014-Aug-11 06:33N 49°29' E 000°11'1 0.9
2014-Aug-11 05:33N 49°28' E 000°10'1010.1
2014-Aug-11 04:33N 49°31' W 000°05'5 5.4
2014-Aug-11 03:33N 49°34' W 000°12'1 1.2
2014-Aug-11 02:33N 49°35' W 000°13'2 1.9
2014-Aug-11 01:33N 49°37' W 000°13'2 2.4
2014-Aug-11 00:33N 49°35' W 000°11'1 1.3
2014-Aug-10 23:33N 49°35' W 000°13'4 4.1
2014-Aug-10 22:33N 49°35' W 000°07'3 2.7
2014-Aug-10 21:33N 49°35' W 000°11'2 1.6
2014-Aug-10 20:33N 49°35' W 000°09'1 1.5
2014-Aug-10 19:33N 49°34' W 000°10'0 0.4
2014-Aug-10 18:34N 49°34' W 000°10'1 1.3
2014-Aug-10 17:33N 49°35' W 000°12'3 2.9
2014-Aug-10 16:33N 49°32' W 000°10'1 1.4
2014-Aug-10 15:34N 49°33' W 000°11'2 2.3
2014-Aug-10 14:33N 49°34' W 000°08'0 0.3
2014-Aug-10 13:33N 49°34' W 000°09'2 2.0
2014-Aug-10 12:33N 49°33' W 000°11'1514.6
2014-Aug-10 11:33N 49°39' W 000°31'3416.6
2014-Aug-10 09:31N 50°01' W 001°12'18913.3
2014-Aug-09 19:19N 48°16' W 005°11'1012.5
2014-Aug-09 18:33N 48°16' W 004°57'7 7.4
2014-Aug-09 17:33N 48°17' W 004°46'8 8.3
2014-Aug-09 16:33N 48°20' W 004°34'6 5.7
2014-Aug-09 15:33N 48°23' W 004°27'0 0.0
2014-Aug-09 14:33N 48°23' W 004°27'0 0.0
2014-Aug-09 13:33N 48°23' W 004°27'0 0.0
2014-Aug-09 12:33N 48°23' W 004°27'0 0.0
2014-Aug-09 11:33N 48°23' W 004°27'0 0.0
2014-Aug-09 10:33N 48°23' W 004°27'0 0.0
2014-Aug-09 09:33N 48°23' W 004°27'0 0.0
2014-Aug-09 08:31N 48°23' W 004°27'0 0.0
2014-Aug-09 07:31N 48°23' W 004°27'0 0.0
2014-Aug-09 06:31N 48°23' W 004°27'0 0.0
2014-Aug-09 05:31N 48°23' W 004°27'0 0.0
2014-Aug-09 04:31N 48°23' W 004°27'0 0.0
2014-Aug-09 03:31N 48°23' W 004°27'0 0.0
2014-Aug-09 02:31N 48°23' W 004°27'0 0.0
2014-Aug-09 01:31N 48°23' W 004°27'0 0.0
2014-Aug-09 00:31N 48°23' W 004°27'0 0.0
2014-Aug-08 23:31N 48°23' W 004°27'0 0.0
2014-Aug-08 22:31N 48°23' W 004°27'0 0.0
2014-Aug-08 21:31N 48°23' W 004°27'0 0.0
2014-Aug-08 20:31N 48°23' W 004°27'0 0.0
2014-Aug-08 19:31N 48°23' W 004°27'0 0.0
2014-Aug-08 18:31N 48°23' W 004°27'0 0.0
2014-Aug-08 17:31N 48°23' W 004°27'0 0.0
2014-Aug-08 16:31N 48°23' W 004°27'0 0.0
2014-Aug-08 15:31N 48°23' W 004°27'0 0.0
2014-Aug-08 14:31N 48°23' W 004°27'0 0.0
2014-Aug-08 13:31N 48°23' W 004°27'0 0.0
2014-Aug-08 12:31N 48°23' W 004°27'0 0.0
2014-Aug-08 11:31N 48°23' W 004°27'0 0.0
2014-Aug-08 10:31N 48°23' W 004°27'0 0.0
2014-Aug-08 09:31N 48°23' W 004°27'0 0.0
2014-Aug-08 08:31N 48°23' W 004°27'  
Track history (hours):
 
Tides and Currents Weather Stations Pressure Air Temp Water Temp Dewpoint Dewpoint Depression Visibility Wind Speed Wind Dir Waves Ship Positions

Modern Express

Last reported at 2014-Aug-18 08:08 UTC. Time now 2014-Sep-01 23:57 UTC.
Position N 36°28' W 010°48'.
Warning: this ship's position is 14 days out of date.

Length 164 m; beam 28 m.

Type: Cargo ship. MMSI: 356187000.

Date/timePositionNaut miles runAvg speedWind from/ knotsBaromVisibWave heightAir tempDewpointWater temp
2014-Aug-18 08:08N 36°28' W 010°48'915.9
2014-Aug-18 07:33N 36°37' W 010°49'3816.1
2014-Aug-18 05:11N 37°15' W 010°45'  
2014-Aug-15 15:30N 50°29' W 000°11'1516.2
2014-Aug-15 14:33N 50°33' E 000°12'1515.1
2014-Aug-15 13:33N 50°38' E 000°35'1514.9
2014-Aug-15 12:33N 50°46' E 000°54'2316.7
2014-Aug-15 11:12N 51°01' E 001°21'1219.5
2014-Aug-15 10:33N 51°08' E 001°37'1918.7
2014-Aug-15 09:33N 51°23' E 001°56'1614.5
2014-Aug-15 08:27N 51°21' E 002°22'1213.8
2014-Aug-15 07:33N 51°22' E 002°42'1413.7
2014-Aug-15 06:34N 51°25' E 003°03'1414.5
2014-Aug-15 05:34N 51°25' E 003°26'10 9.6
2014-Aug-15 04:33N 51°26' E 003°42'9 9.1
2014-Aug-15 03:33N 51°22' E 003°55'6 6.0
2014-Aug-15 02:33N 51°22' E 004°04'8 8.4
2014-Aug-15 01:34N 51°19' E 004°16'3 3.1
2014-Aug-15 00:34N 51°16' E 004°17'2 1.9
2014-Aug-14 23:33N 51°16' E 004°14'0 0.3
2014-Aug-14 22:31N 51°16' E 004°13'0 0.0
2014-Aug-14 21:31N 51°16' E 004°13'0 0.0
2014-Aug-14 20:31N 51°16' E 004°13'0 0.0
2014-Aug-14 19:31N 51°16' E 004°13'0 0.0
2014-Aug-14 18:31N 51°16' E 004°13'0 0.0
2014-Aug-14 17:32N 51°16' E 004°13'0 0.0
2014-Aug-14 16:22N 51°16' E 004°13'0 0.0
2014-Aug-14 15:31N 51°16' E 004°13'0 0.0
2014-Aug-14 14:31N 51°16' E 004°13'0 0.0
2014-Aug-14 13:31N 51°16' E 004°13'0 0.0
2014-Aug-14 12:31N 51°16' E 004°13'0 0.0
2014-Aug-14 11:31N 51°16' E 004°13'0 0.0
2014-Aug-14 10:31N 51°16' E 004°13'0 0.0
2014-Aug-14 09:31N 51°16' E 004°13'0 0.0
2014-Aug-14 08:31N 51°16' E 004°13'0 0.0
2014-Aug-14 07:31N 51°16' E 004°13'0 0.0
2014-Aug-14 06:31N 51°16' E 004°13'0 0.0
2014-Aug-14 05:31N 51°16' E 004°13'0 0.0
2014-Aug-14 04:31N 51°16' E 004°13'0 0.0
2014-Aug-14 03:31N 51°16' E 004°13'0 0.0
2014-Aug-14 02:33N 51°16' E 004°13'0 0.0
2014-Aug-14 01:31N 51°16' E 004°13'0 0.0
2014-Aug-14 00:31N 51°16' E 004°13'0 0.0
2014-Aug-13 23:31N 51°16' E 004°13'0 0.0
2014-Aug-13 22:28N 51°16' E 004°13'0 0.0
2014-Aug-13 21:33N 51°16' E 004°13'0 0.0
2014-Aug-13 20:31N 51°16' E 004°13'0 0.0
2014-Aug-13 19:31N 51°16' E 004°13'0 0.0
2014-Aug-13 18:31N 51°16' E 004°13'0 0.0
2014-Aug-13 17:31N 51°16' E 004°13'0 0.0
2014-Aug-13 16:31N 51°16' E 004°13'0 0.0
2014-Aug-13 15:28N 51°16' E 004°13'0 0.0
2014-Aug-13 14:31N 51°16' E 004°13'0 0.0
2014-Aug-13 13:31N 51°16' E 004°13'0 0.0
2014-Aug-13 12:31N 51°16' E 004°13'0 0.0
2014-Aug-13 11:31N 51°16' E 004°13'0 0.0
2014-Aug-13 10:31N 51°16' E 004°13'0 0.0
2014-Aug-13 09:31N 51°16' E 004°13'0 0.0
2014-Aug-13 08:28N 51°16' E 004°13'0 0.0
2014-Aug-13 07:28N 51°16' E 004°13'0 0.0
2014-Aug-13 06:31N 51°16' E 004°13'0 0.0
2014-Aug-13 05:28N 51°16' E 004°13'0 0.0
2014-Aug-13 04:31N 51°16' E 004°13'0 0.0
2014-Aug-13 03:31N 51°16' E 004°13'0 0.0
2014-Aug-13 02:31N 51°16' E 004°13'0 0.0
2014-Aug-13 01:31N 51°16' E 004°13'0 0.0
2014-Aug-13 00:31N 51°16' E 004°13'0 0.0
2014-Aug-12 23:31N 51°16' E 004°13'0 0.0
2014-Aug-12 22:28N 51°16' E 004°13'0 0.0
2014-Aug-12 21:31N 51°16' E 004°13'0 0.0
2014-Aug-12 20:28N 51°16' E 004°13'0 0.0
2014-Aug-12 19:31N 51°16' E 004°13'0 0.0
2014-Aug-12 18:28N 51°16' E 004°13'0 0.0
2014-Aug-12 17:31N 51°16' E 004°13'2 2.2
2014-Aug-12 16:34N 51°16' E 004°17'0 0.3
2014-Aug-12 15:34N 51°16' E 004°17'6 6.1
2014-Aug-12 14:34N 51°22' E 004°14'9 9.0
2014-Aug-12 13:33N 51°26' E 004°01'1110.7
2014-Aug-12 12:33N 51°22' E 003°45'9 9.1
2014-Aug-12 11:33N 51°25' E 003°31'1616.1
2014-Aug-12 10:33N 51°24' E 003°06'1413.8
2014-Aug-12 09:33N 51°22' E 002°44'5 4.9
2014-Aug-12 08:28N 51°20' E 002°36'0 0.2
2014-Aug-12 07:31N 51°20' E 002°36'2 2.6
2014-Aug-12 06:33N 51°22' E 002°33'1212.2
2014-Aug-12 05:33N 51°17' E 002°15'1716.8
2014-Aug-12 04:34N 51°09' E 001°52'1817.7
2014-Aug-12 03:34N 50°57' E 001°30'2317.5
2014-Aug-12 02:15N 50°37' E 001°15'2016.9
2014-Aug-12 01:05N 50°26' E 000°49'916.9
2014-Aug-12 00:34N 50°23' E 000°35'4614.7
2014-Aug-11 21:26N 49°46' W 000°08'1516.7
2014-Aug-11 20:34N 49°32' W 000°06'10 9.8
2014-Aug-11 19:33N 49°28' E 000°08'2 1.6
2014-Aug-11 18:33N 49°29' E 000°11'0 0.2
2014-Aug-11 17:33N 49°29' E 000°11'0 0.0
2014-Aug-11 16:33N 49°29' E 000°11'0 0.0
2014-Aug-11 15:21N 49°29' E 000°11'0 0.0
2014-Aug-11 14:33N 49°29' E 000°11'0 0.0
2014-Aug-11 13:33N 49°29' E 000°11'0 0.0
2014-Aug-11 12:33N 49°29' E 000°11'0 0.0
2014-Aug-11 11:27N 49°29' E 000°11'0 0.0
2014-Aug-11 10:33N 49°29' E 000°11'0 0.0
2014-Aug-11 09:33N 49°29' E 000°11'0 0.0
2014-Aug-11 08:33N 49°29' E 000°11'0 0.0
2014-Aug-11 07:33N 49°29' E 000°11'0 0.1
2014-Aug-11 06:33N 49°29' E 000°11'1 0.9
2014-Aug-11 05:33N 49°28' E 000°10'1010.1
2014-Aug-11 04:33N 49°31' W 000°05'5 5.4
2014-Aug-11 03:33N 49°34' W 000°12'1 1.2
2014-Aug-11 02:33N 49°35' W 000°13'2 1.9
2014-Aug-11 01:33N 49°37' W 000°13'2 2.4
2014-Aug-11 00:33N 49°35' W 000°11'1 1.3
2014-Aug-10 23:33N 49°35' W 000°13'4 4.1
2014-Aug-10 22:33N 49°35' W 000°07'3 2.7
2014-Aug-10 21:33N 49°35' W 000°11'2 1.6
2014-Aug-10 20:33N 49°35' W 000°09'1 1.5
2014-Aug-10 19:33N 49°34' W 000°10'0 0.4
2014-Aug-10 18:34N 49°34' W 000°10'1 1.3
2014-Aug-10 17:33N 49°35' W 000°12'3 2.9
2014-Aug-10 16:33N 49°32' W 000°10'1 1.4
2014-Aug-10 15:34N 49°33' W 000°11'2 2.3
2014-Aug-10 14:33N 49°34' W 000°08'0 0.3
2014-Aug-10 13:33N 49°34' W 000°09'2 2.0
2014-Aug-10 12:33N 49°33' W 000°11'1514.6
2014-Aug-10 11:33N 49°39' W 000°31'3416.6
2014-Aug-10 09:31N 50°01' W 001°12'18913.3
2014-Aug-09 19:19N 48°16' W 005°11'1012.5
2014-Aug-09 18:33N 48°16' W 004°57'7 7.4
2014-Aug-09 17:33N 48°17' W 004°46'8 8.3
2014-Aug-09 16:33N 48°20' W 004°34'6 5.7
2014-Aug-09 15:33N 48°23' W 004°27'0 0.0
2014-Aug-09 14:33N 48°23' W 004°27'0 0.0
2014-Aug-09 13:33N 48°23' W 004°27'0 0.0
2014-Aug-09 12:33N 48°23' W 004°27'0 0.0
2014-Aug-09 11:33N 48°23' W 004°27'0 0.0
2014-Aug-09 10:33N 48°23' W 004°27'0 0.0
2014-Aug-09 09:33N 48°23' W 004°27'0 0.0
2014-Aug-09 08:31N 48°23' W 004°27'0 0.0
2014-Aug-09 07:31N 48°23' W 004°27'0 0.0
2014-Aug-09 06:31N 48°23' W 004°27'0 0.0
2014-Aug-09 05:31N 48°23' W 004°27'0 0.0
2014-Aug-09 04:31N 48°23' W 004°27'0 0.0
2014-Aug-09 03:31N 48°23' W 004°27'0 0.0
2014-Aug-09 02:31N 48°23' W 004°27'0 0.0
2014-Aug-09 01:31N 48°23' W 004°27'0 0.0
2014-Aug-09 00:31N 48°23' W 004°27'0 0.0
2014-Aug-08 23:31N 48°23' W 004°27'0 0.0
2014-Aug-08 22:31N 48°23' W 004°27'0 0.0
2014-Aug-08 21:31N 48°23' W 004°27'0 0.0
2014-Aug-08 20:31N 48°23' W 004°27'0 0.0
2014-Aug-08 19:31N 48°23' W 004°27'0 0.0
2014-Aug-08 18:31N 48°23' W 004°27'0 0.0
2014-Aug-08 17:31N 48°23' W 004°27'0 0.0
2014-Aug-08 16:31N 48°23' W 004°27'0 0.0
2014-Aug-08 15:31N 48°23' W 004°27'0 0.0
2014-Aug-08 14:31N 48°23' W 004°27'0 0.0
2014-Aug-08 13:31N 48°23' W 004°27'0 0.0
2014-Aug-08 12:31N 48°23' W 004°27'0 0.0
2014-Aug-08 11:31N 48°23' W 004°27'0 0.0
2014-Aug-08 10:31N 48°23' W 004°27'0 0.0
2014-Aug-08 09:31N 48°23' W 004°27'0 0.0
2014-Aug-08 08:31N 48°23' W 004°27'  

Dump ship's entire track history